Time;durP1;ratioP1;P1;durP2;ratioP2;P2;SDS_P1;SDS_P2;PMS_P1;PMS_P2;Temp;Humidity;BMP_temperature;BMP_pressure;BME280_temperature;BME280_humidity;BME280_pressure;Samples;Min_cycle;Max_cycle;Signal;HPM_P1;HPM_P2
2022/03/26 00:01:27;;;;;;;9.93;2.35;;;;;;;;;;4987122;28;20030;-88
2022/03/26 00:04:17;;;;;;;10.10;2.30;;;;;;;;;;4980182;28;20035;-89
2022/03/26 00:06:52;;;;;;;8.05;1.90;;;;;;;;;;4935055;29;20039;-87
2022/03/26 00:09:18;;;;;;;10.63;1.58;;;;;;;;;;4953077;28;20023;-88
2022/03/26 00:11:45;;;;;;;14.13;1.70;;;;;;;;;;4986279;28;20478;-89
2022/03/26 00:14:12;;;;;;;7.10;1.92;;;;;;;;;;4983900;28;20028;-88
2022/03/26 00:16:38;;;;;;;9.43;2.15;;;;;;;;;;4988101;28;20038;-88
2022/03/26 00:19:04;;;;;;;6.78;1.58;;;;;;;;;;4979263;28;20031;-88
2022/03/26 00:21:42;;;;;;;7.35;1.45;;;;;;;;;;4976032;28;20034;-90
2022/03/26 00:24:09;;;;;;;8.88;1.17;;;;;;;;;;4962377;28;20030;-91
2022/03/26 00:26:43;;;;;;;9.23;1.42;;;;;;;;;;4978860;28;20082;-91
2022/03/26 00:29:10;;;;;;;14.80;1.73;;;;;;;;;;4974772;28;20529;-91
2022/03/26 00:31:37;;;;;;;10.15;1.90;;;;;;;;;;4961153;28;20073;-88
2022/03/26 00:34:04;;;;;;;8.77;1.30;;;;;;;;;;4981650;28;20109;-90
2022/03/26 00:36:39;;;;;;;12.05;1.65;;;;;;;;;;4982067;28;20039;-90
2022/03/26 00:39:06;;;;;;;10.13;1.50;;;;;;;;;;4974336;28;20043;-89
2022/03/26 00:41:47;;;;;;;7.68;1.85;;;;;;;;;;4970035;28;20050;-92
2022/03/26 00:44:13;;;;;;;8.98;1.60;;;;;;;;;;4973396;28;20042;-89
2022/03/26 00:46:40;;;;;;;10.90;1.75;;;;;;;;;;4967165;28;20090;-90
2022/03/26 00:49:15;;;;;;;12.32;1.40;;;;;;;;;;4962898;28;20555;-89
2022/03/26 00:51:41;;;;;;;13.52;1.48;;;;;;;;;;4974346;28;20031;-90
2022/03/26 00:54:12;;;;;;;10.07;2.20;;;;;;;;;;4953561;28;20062;-89
2022/03/26 00:56:39;;;;;;;11.00;1.20;;;;;;;;;;4973150;28;20051;-90
2022/03/26 00:59:07;;;;;;;8.65;1.52;;;;;;;;;;4961314;28;20521;-89
2022/03/26 01:01:46;;;;;;;11.38;1.80;;;;;;;;;;4972189;28;20039;-91
2022/03/26 01:04:12;;;;;;;13.52;1.88;;;;;;;;;;4961403;28;20078;-90
2022/03/26 01:06:40;;;;;;;11.00;2.30;;;;;;;;;;4966055;28;20078;-90
2022/03/26 01:09:07;;;;;;;8.48;1.98;;;;;;;;;;4958015;28;20071;-90
2022/03/26 01:11:36;;;;;;;9.10;2.40;;;;;;;;;;4956260;28;20039;-91
2022/03/26 01:14:02;;;;;;;18.67;2.63;;;;;;;;;;4975718;28;20031;-90
2022/03/26 01:16:32;;;;;;;12.13;2.38;;;;;;;;;;4972821;28;20031;-90
2022/03/26 01:19:05;;;;;;;18.85;2.28;;;;;;;;;;4951896;28;20032;-90
2022/03/26 01:21:48;;;;;;;15.45;2.88;;;;;;;;;;4953282;28;20131;-90
2022/03/26 01:24:14;;;;;;;14.93;2.35;;;;;;;;;;4965433;28;20027;-88
2022/03/26 01:26:41;;;;;;;12.65;2.17;;;;;;;;;;4964604;28;20027;-90
2022/03/26 01:29:09;;;;;;;17.80;2.75;;;;;;;;;;4939602;28;20062;-91
2022/03/26 01:31:37;;;;;;;17.20;2.50;;;;;;;;;;4935940;28;20129;-91
2022/03/26 01:34:03;;;;;;;19.13;3.45;;;;;;;;;;4939390;29;20042;-90
2022/03/26 01:36:38;;;;;;;21.95;4.25;;;;;;;;;;4945254;28;20050;-89
2022/03/26 01:39:05;;;;;;;17.08;2.97;;;;;;;;;;4945409;29;20117;-90
2022/03/26 01:42:05;;;;;;;25.95;3.65;;;;;;;;;;4942754;28;20406;-89
2022/03/26 01:44:31;;;;;;;27.05;5.30;;;;;;;;;;4949410;29;20466;-90
2022/03/26 01:47:03;;;;;;;21.50;3.63;;;;;;;;;;4938998;29;20039;-91
2022/03/26 01:49:30;;;;;;;27.30;3.60;;;;;;;;;;4939558;29;20134;-90
2022/03/26 01:52:09;;;;;;;24.60;4.05;;;;;;;;;;4947164;28;20039;-88
2022/03/26 01:54:38;;;;;;;21.00;4.03;;;;;;;;;;4939646;29;20043;-90
2022/03/26 01:57:04;;;;;;;28.88;4.18;;;;;;;;;;4940656;28;20063;-90
2022/03/26 01:59:33;;;;;;;20.42;3.85;;;;;;;;;;4938070;29;20502;-89
2022/03/26 02:02:00;;;;;;;25.23;3.97;;;;;;;;;;4944227;28;20105;-88
2022/03/26 02:04:27;;;;;;;24.35;4.93;;;;;;;;;;4937609;28;20078;-88
2022/03/26 02:06:55;;;;;;;30.92;4.72;;;;;;;;;;4925398;28;20490;-86
2022/03/26 02:09:24;;;;;;;20.13;4.60;;;;;;;;;;4934754;28;20042;-87
2022/03/26 02:11:50;;;;;;;31.95;6.40;;;;;;;;;;4939717;29;20090;-88
2022/03/26 02:14:26;;;;;;;22.27;5.30;;;;;;;;;;4596169;29;9999839;-87
2022/03/26 02:16:52;;;;;;;23.70;3.90;;;;;;;;;;4951195;28;20062;-87
2022/03/26 02:19:37;;;;;;;19.02;3.90;;;;;;;;;;4937051;29;20035;-88
2022/03/26 02:22:04;;;;;;;18.83;4.50;;;;;;;;;;4952592;28;20509;-86
2022/03/26 02:24:31;;;;;;;20.42;4.35;;;;;;;;;;4937620;29;20039;-87
2022/03/26 02:26:57;;;;;;;27.20;4.80;;;;;;;;;;4950368;28;20074;-87
2022/03/26 02:29:53;;;;;;;23.45;4.35;;;;;;;;;;4940948;29;20039;-86
2022/03/26 02:32:24;;;;;;;15.90;4.20;;;;;;;;;;4885010;29;20056;-87
2022/03/26 02:34:51;;;;;;;24.77;5.65;;;;;;;;;;4944847;29;20038;-87
2022/03/26 02:37:22;;;;;;;31.35;5.97;;;;;;;;;;4954755;28;20066;-87
2022/03/26 02:39:49;;;;;;;37.00;6.40;;;;;;;;;;4937105;29;20039;-88
2022/03/26 02:42:16;;;;;;;38.67;6.95;;;;;;;;;;4934032;28;20043;-85
2022/03/26 02:44:43;;;;;;;29.85;7.28;;;;;;;;;;4937294;29;20490;-86
2022/03/26 02:47:10;;;;;;;46.10;9.07;;;;;;;;;;4942737;28;20042;-86
2022/03/26 02:49:37;;;;;;;31.38;6.88;;;;;;;;;;4932519;29;20031;-86
2022/03/26 02:52:04;;;;;;;29.23;6.60;;;;;;;;;;4594734;29;10000088;-86
2022/03/26 02:54:31;;;;;;;29.08;5.60;;;;;;;;;;4934776;29;20055;-86
2022/03/26 02:56:57;;;;;;;28.50;5.25;;;;;;;;;;4938321;28;20101;-85
2022/03/26 02:59:24;;;;;;;33.20;5.38;;;;;;;;;;4951037;28;20039;-85
2022/03/26 03:01:52;;;;;;;23.92;4.28;;;;;;;;;;4954216;28;20501;-86
2022/03/26 03:04:19;;;;;;;25.25;4.95;;;;;;;;;;4952576;28;20038;-86
2022/03/26 03:06:45;;;;;;;22.58;5.00;;;;;;;;;;4956816;28;20106;-85
2022/03/26 03:09:15;;;;;;;30.17;5.50;;;;;;;;;;4959331;28;20391;-87
2022/03/26 03:11:41;;;;;;;27.55;4.75;;;;;;;;;;4955890;28;20035;-86
2022/03/26 03:14:08;;;;;;;35.28;6.10;;;;;;;;;;4954301;28;20114;-87
2022/03/26 03:16:34;;;;;;;24.88;5.30;;;;;;;;;;4936149;29;20027;-87
2022/03/26 03:19:01;;;;;;;25.00;5.68;;;;;;;;;;4939908;28;20027;-87
2022/03/26 03:21:27;;;;;;;19.65;4.90;;;;;;;;;;4953369;28;20475;-86
2022/03/26 03:23:54;;;;;;;33.72;6.45;;;;;;;;;;4955543;28;20045;-86
2022/03/26 03:26:21;;;;;;;35.88;5.90;;;;;;;;;;4961296;28;20036;-85
2022/03/26 03:28:47;;;;;;;28.50;5.50;;;;;;;;;;4952693;29;20451;-87
2022/03/26 03:31:13;;;;;;;23.00;5.47;;;;;;;;;;4952606;29;20124;-86
2022/03/26 03:33:43;;;;;;;23.25;6.03;;;;;;;;;;4953027;29;20091;-86
2022/03/26 03:36:10;;;;;;;27.73;5.68;;;;;;;;;;4953958;28;20032;-85
2022/03/26 03:38:36;;;;;;;26.40;6.10;;;;;;;;;;4955258;28;20440;-86
2022/03/26 03:41:03;;;;;;;32.45;6.88;;;;;;;;;;4959608;28;20047;-85
2022/03/26 03:43:36;;;;;;;25.58;6.20;;;;;;;;;;4954641;28;20071;-86
2022/03/26 03:46:02;;;;;;;28.10;6.68;;;;;;;;;;4954959;28;20039;-86
2022/03/26 03:48:31;;;;;;;32.63;8.25;;;;;;;;;;4952633;28;20039;-86
2022/03/26 03:50:57;;;;;;;33.50;8.82;;;;;;;;;;4960510;28;20039;-86
2022/03/26 03:53:28;;;;;;;41.00;9.02;;;;;;;;;;4952299;28;20075;-85
2022/03/26 03:55:54;;;;;;;40.78;9.70;;;;;;;;;;4970129;28;20089;-86
2022/03/26 03:58:22;;;;;;;42.05;9.32;;;;;;;;;;4971501;28;20031;-87
2022/03/26 04:00:48;;;;;;;35.65;8.95;;;;;;;;;;4971259;28;20049;-86
2022/03/26 04:03:22;;;;;;;39.13;8.63;;;;;;;;;;4971958;28;20047;-86
2022/03/26 04:05:48;;;;;;;40.67;7.93;;;;;;;;;;4971995;28;20058;-86
2022/03/26 04:08:21;;;;;;;40.85;7.38;;;;;;;;;;4957129;28;20080;-86
2022/03/26 04:10:47;;;;;;;30.77;7.15;;;;;;;;;;4956723;28;20121;-85
2022/03/26 04:13:15;;;;;;;30.80;8.00;;;;;;;;;;4955541;28;20554;-86
2022/03/26 04:15:41;;;;;;;34.20;7.75;;;;;;;;;;4972603;28;20064;-86
2022/03/26 04:18:08;;;;;;;38.38;8.23;;;;;;;;;;4972712;28;20030;-85
2022/03/26 04:20:35;;;;;;;43.42;8.52;;;;;;;;;;4965738;28;20039;-85
2022/03/26 04:23:03;;;;;;;39.58;8.88;;;;;;;;;;4987476;28;20034;-85
2022/03/26 04:25:31;;;;;;;37.75;8.38;;;;;;;;;;4976110;28;20035;-85
2022/03/26 04:28:09;;;;;;;45.50;10.75;;;;;;;;;;4981415;28;20041;-85
2022/03/26 04:30:35;;;;;;;49.00;11.60;;;;;;;;;;4958451;28;20085;-87
2022/03/26 04:33:01;;;;;;;36.38;9.25;;;;;;;;;;4960542;28;20031;-86
2022/03/26 04:35:28;;;;;;;43.17;12.50;;;;;;;;;;4979166;28;20047;-83
2022/03/26 04:37:57;;;;;;;35.60;10.43;;;;;;;;;;4975190;28;20076;-87
2022/03/26 04:40:24;;;;;;;35.67;6.47;;;;;;;;;;4974378;28;20039;-85
2022/03/26 04:42:57;;;;;;;35.05;6.85;;;;;;;;;;4968558;28;20394;-86
2022/03/26 04:45:23;;;;;;;34.83;7.05;;;;;;;;;;4968128;28;20038;-85
2022/03/26 04:47:53;;;;;;;46.10;9.52;;;;;;;;;;4958327;28;20057;-86
2022/03/26 04:50:19;;;;;;;45.38;10.20;;;;;;;;;;4964362;28;20102;-86
2022/03/26 04:52:47;;;;;;;45.45;12.85;;;;;;;;;;4971107;28;20038;-87
2022/03/26 04:55:20;;;;;;;41.88;10.93;;;;;;;;;;4980686;28;20401;-85
2022/03/26 04:57:53;;;;;;;40.30;10.05;;;;;;;;;;4975304;28;20070;-87
2022/03/26 05:00:22;;;;;;;47.50;12.65;;;;;;;;;;4976804;28;20041;-85
2022/03/26 05:02:48;;;;;;;51.10;13.32;;;;;;;;;;4982641;28;20035;-86
2022/03/26 05:05:39;;;;;;;47.42;13.55;;;;;;;;;;4978289;28;20027;-85
2022/03/26 05:08:06;;;;;;;57.05;12.88;;;;;;;;;;4951841;28;20035;-86
2022/03/26 05:10:32;;;;;;;39.95;11.77;;;;;;;;;;4975231;28;20166;-85
2022/03/26 05:12:59;;;;;;;43.70;12.50;;;;;;;;;;4974163;28;20035;-86
2022/03/26 05:15:29;;;;;;;48.25;12.73;;;;;;;;;;4973422;28;20122;-87
2022/03/26 05:17:56;;;;;;;35.03;11.32;;;;;;;;;;4974075;28;20046;-86
2022/03/26 05:20:23;;;;;;;44.25;10.30;;;;;;;;;;4970433;28;20110;-85
2022/03/26 05:22:52;;;;;;;38.38;9.77;;;;;;;;;;4964718;28;20039;-86
2022/03/26 05:25:19;;;;;;;42.90;11.30;;;;;;;;;;4960143;28;20034;-86
2022/03/26 05:27:52;;;;;;;42.95;10.45;;;;;;;;;;4976841;28;21535;-85
2022/03/26 05:30:19;;;;;;;44.15;11.68;;;;;;;;;;4971438;28;20035;-85
2022/03/26 05:32:48;;;;;;;37.85;11.55;;;;;;;;;;4970837;28;20536;-84
2022/03/26 05:35:14;;;;;;;43.58;11.75;;;;;;;;;;4971843;28;20179;-86
2022/03/26 05:37:49;;;;;;;41.47;12.27;;;;;;;;;;4975370;28;20524;-85
2022/03/26 05:40:16;;;;;;;43.33;12.40;;;;;;;;;;4969211;28;20468;-86
2022/03/26 05:42:46;;;;;;;39.88;11.55;;;;;;;;;;4972612;28;20039;-85
2022/03/26 05:45:12;;;;;;;48.13;12.65;;;;;;;;;;4975980;28;20371;-85
2022/03/26 05:47:45;;;;;;;40.45;11.43;;;;;;;;;;4982370;28;20043;-85
2022/03/26 05:50:12;;;;;;;36.00;11.48;;;;;;;;;;4989947;28;20042;-86
2022/03/26 05:52:38;;;;;;;37.35;11.50;;;;;;;;;;4975555;28;20043;-85
2022/03/26 05:55:11;;;;;;;36.10;11.90;;;;;;;;;;4980156;28;20477;-85
2022/03/26 05:57:37;;;;;;;35.25;7.65;;;;;;;;;;4975907;28;20181;-85
2022/03/26 06:00:06;;;;;;;32.35;6.18;;;;;;;;;;4973774;28;20038;-85
2022/03/26 06:02:32;;;;;;;22.98;3.95;;;;;;;;;;4974309;28;20405;-85
2022/03/26 06:04:59;;;;;;;27.15;4.30;;;;;;;;;;4970860;28;20027;-86
2022/03/26 06:07:26;;;;;;;30.52;4.10;;;;;;;;;;4972136;28;20035;-85
2022/03/26 06:09:53;;;;;;;29.05;4.63;;;;;;;;;;4972165;28;20038;-85
2022/03/26 06:12:19;;;;;;;25.05;4.32;;;;;;;;;;4974998;28;20043;-85
2022/03/26 06:14:53;;;;;;;26.42;4.28;;;;;;;;;;4972247;28;20120;-84
2022/03/26 06:17:22;;;;;;;25.92;5.65;;;;;;;;;;4979474;28;20039;-85
2022/03/26 06:19:48;;;;;;;36.00;7.85;;;;;;;;;;4978306;28;20513;-86
2022/03/26 06:22:14;;;;;;;63.28;16.50;;;;;;;;;;4979528;28;20031;-85
2022/03/26 06:24:57;;;;;;;99.90;25.23;;;;;;;;;;4973461;28;20043;-91
2022/03/26 06:27:23;;;;;;;76.47;26.23;;;;;;;;;;4972250;28;20026;-88
2022/03/26 06:29:51;;;;;;;75.20;28.42;;;;;;;;;;4973917;28;20046;-91
2022/03/26 06:32:17;;;;;;;69.72;26.98;;;;;;;;;;4978090;28;20505;-88
2022/03/26 06:34:48;;;;;;;47.05;15.18;;;;;;;;;;4978570;28;20034;-89
2022/03/26 06:37:17;;;;;;;43.90;13.90;;;;;;;;;;4973114;28;20069;-88
2022/03/26 06:39:50;;;;;;;52.88;15.00;;;;;;;;;;4964449;28;20131;-89
2022/03/26 06:42:17;;;;;;;49.35;17.80;;;;;;;;;;4970669;28;20054;-88
2022/03/26 06:44:43;;;;;;;52.60;17.60;;;;;;;;;;4973780;28;20031;-88
2022/03/26 06:47:10;;;;;;;49.08;16.48;;;;;;;;;;4958177;28;20085;-88
2022/03/26 06:49:37;;;;;;;52.72;16.42;;;;;;;;;;4972161;28;20038;-89
2022/03/26 06:52:04;;;;;;;53.00;16.27;;;;;;;;;;4961036;28;20552;-88
2022/03/26 06:54:30;;;;;;;37.58;13.18;;;;;;;;;;4968819;28;20131;-88
2022/03/26 06:56:57;;;;;;;38.38;11.07;;;;;;;;;;4959202;28;20039;-89
2022/03/26 06:59:24;;;;;;;46.35;13.00;;;;;;;;;;4967807;28;20039;-89
2022/03/26 07:02:00;;;;;;;39.97;12.93;;;;;;;;;;4977598;28;20046;-88
2022/03/26 07:04:27;;;;;;;38.67;10.93;;;;;;;;;;4956755;28;20034;-89
2022/03/26 07:06:53;;;;;;;35.33;9.75;;;;;;;;;;4973158;28;20038;-89
2022/03/26 07:09:19;;;;;;;27.75;7.10;;;;;;;;;;4979743;28;20034;-88
2022/03/26 07:11:48;;;;;;;30.08;5.22;;;;;;;;;;4972893;28;20039;-87
2022/03/26 07:14:14;;;;;;;34.40;5.18;;;;;;;;;;4977039;28;20031;-89
2022/03/26 07:17:11;;;;;;;37.70;5.22;;;;;;;;;;4959293;28;20034;-88
2022/03/26 07:19:38;;;;;;;28.77;4.90;;;;;;;;;;4911901;29;20036;-88
2022/03/26 07:22:04;;;;;;;27.42;5.80;;;;;;;;;;4575052;29;9999690;-90
2022/03/26 07:24:52;;;;;;;33.67;5.28;;;;;;;;;;4899381;29;20369;-90
2022/03/26 07:27:18;;;;;;;23.70;4.47;;;;;;;;;;4897477;29;20043;-88
2022/03/26 07:29:48;;;;;;;29.02;5.10;;;;;;;;;;4919904;28;20501;-90
2022/03/26 07:32:19;;;;;;;36.78;5.22;;;;;;;;;;4978543;28;20065;-90
2022/03/26 07:34:46;;;;;;;26.95;4.53;;;;;;;;;;4973151;28;20058;-91
2022/03/26 07:37:16;;;;;;;20.95;4.38;;;;;;;;;;4957378;28;20503;-90
2022/03/26 07:39:43;;;;;;;31.15;4.32;;;;;;;;;;4965984;28;20066;-88
2022/03/26 07:42:13;;;;;;;24.25;4.72;;;;;;;;;;4953900;28;20394;-88
2022/03/26 07:44:39;;;;;;;28.42;5.28;;;;;;;;;;4960261;28;20483;-89
2022/03/26 07:47:13;;;;;;;38.33;5.82;;;;;;;;;;4966787;28;20032;-89
2022/03/26 07:49:39;;;;;;;24.40;5.03;;;;;;;;;;4971893;28;20122;-90
2022/03/26 07:52:25;;;;;;;35.50;7.10;;;;;;;;;;4956683;28;20046;-88
2022/03/26 07:54:53;;;;;;;33.45;6.25;;;;;;;;;;4947953;28;20118;-90
2022/03/26 07:57:19;;;;;;;31.60;5.63;;;;;;;;;;4976851;28;20046;-89
2022/03/26 08:00:10;;;;;;;28.90;5.75;;;;;;;;;;4969820;28;20038;-90
2022/03/26 08:02:42;;;;;;;42.25;7.10;;;;;;;;;;4928656;28;20046;-91
2022/03/26 08:05:08;;;;;;;37.13;6.65;;;;;;;;;;4971979;28;20049;-91
2022/03/26 08:07:35;;;;;;;42.33;7.85;;;;;;;;;;4960474;28;20039;-91
2022/03/26 08:10:02;;;;;;;23.52;4.82;;;;;;;;;;4984317;28;20086;-89
2022/03/26 08:12:32;;;;;;;31.35;6.55;;;;;;;;;;4989365;28;20162;-90
2022/03/26 08:14:59;;;;;;;40.40;7.78;;;;;;;;;;4953480;28;20130;-90
2022/03/26 08:17:42;;;;;;;31.17;7.00;;;;;;;;;;4976245;28;20035;-90
2022/03/26 08:20:09;;;;;;;27.42;5.82;;;;;;;;;;4975625;28;20035;-90
2022/03/26 08:22:36;;;;;;;36.78;6.90;;;;;;;;;;4981925;28;20500;-89
2022/03/26 08:25:03;;;;;;;32.58;6.63;;;;;;;;;;4976259;28;20027;-90
2022/03/26 08:27:32;;;;;;;32.45;7.22;;;;;;;;;;4975862;28;20061;-88
2022/03/26 08:29:58;;;;;;;36.60;7.15;;;;;;;;;;4980866;28;20026;-90
2022/03/26 08:32:26;;;;;;;35.60;6.90;;;;;;;;;;4979114;28;20041;-90
2022/03/26 08:34:52;;;;;;;30.85;6.15;;;;;;;;;;4961690;28;20039;-91
2022/03/26 08:37:19;;;;;;;29.85;6.93;;;;;;;;;;4976963;28;20038;-89
2022/03/26 08:39:46;;;;;;;39.53;7.85;;;;;;;;;;4970605;28;20039;-89
2022/03/26 08:42:26;;;;;;;44.05;8.38;;;;;;;;;;4976334;28;20449;-89
2022/03/26 08:44:52;;;;;;;47.30;7.90;;;;;;;;;;4988770;28;20031;-89
2022/03/26 08:47:19;;;;;;;34.42;8.02;;;;;;;;;;4975799;28;20039;-90
2022/03/26 08:49:45;;;;;;;38.88;8.02;;;;;;;;;;4961069;28;20094;-89
2022/03/26 08:52:13;;;;;;;37.00;7.47;;;;;;;;;;4966439;28;20466;-88
2022/03/26 08:54:41;;;;;;;34.90;7.13;;;;;;;;;;4969464;28;20398;-91
2022/03/26 08:57:08;;;;;;;32.53;7.18;;;;;;;;;;4965723;28;20039;-90
2022/03/26 08:59:37;;;;;;;28.40;7.50;;;;;;;;;;4964976;28;20474;-88
2022/03/26 09:02:03;;;;;;;35.00;7.72;;;;;;;;;;4965774;28;20130;-88
2022/03/26 09:04:29;;;;;;;38.78;8.23;;;;;;;;;;4958188;28;20597;-88
2022/03/26 09:06:56;;;;;;;29.65;9.18;;;;;;;;;;4959891;28;20027;-90
2022/03/26 09:09:27;;;;;;;38.97;8.68;;;;;;;;;;4971505;28;20431;-89
2022/03/26 09:11:53;;;;;;;32.70;7.95;;;;;;;;;;4978476;28;20505;-87
2022/03/26 09:14:26;;;;;;;47.20;8.45;;;;;;;;;;4974877;28;20390;-88
2022/03/26 09:16:52;;;;;;;39.05;8.13;;;;;;;;;;4974422;28;20038;-88
2022/03/26 09:19:28;;;;;;;36.13;7.60;;;;;;;;;;4630696;28;10000146;-89
2022/03/26 09:21:54;;;;;;;40.90;7.85;;;;;;;;;;4968046;28;20035;-89
2022/03/26 09:24:20;;;;;;;36.78;8.18;;;;;;;;;;4958446;28;20541;-88
2022/03/26 09:26:46;;;;;;;27.80;7.78;;;;;;;;;;4973517;28;20043;-88
2022/03/26 09:29:14;;;;;;;33.55;7.78;;;;;;;;;;4986924;28;20126;-90
2022/03/26 09:31:40;;;;;;;36.72;8.27;;;;;;;;;;4970483;28;20038;-87
2022/03/26 09:34:06;;;;;;;31.70;7.88;;;;;;;;;;4969315;28;20647;-89
2022/03/26 09:36:33;;;;;;;44.92;9.20;;;;;;;;;;4974297;28;20091;-89
2022/03/26 09:39:00;;;;;;;42.47;10.68;;;;;;;;;;4966331;28;20589;-89
2022/03/26 09:41:27;;;;;;;44.00;12.07;;;;;;;;;;4975448;28;20074;-90
2022/03/26 09:43:56;;;;;;;44.15;12.57;;;;;;;;;;4977426;28;20089;-88
2022/03/26 09:46:23;;;;;;;58.05;13.07;;;;;;;;;;4627344;28;10000131;-87
2022/03/26 09:48:50;;;;;;;49.88;11.85;;;;;;;;;;4966150;28;20438;-88
2022/03/26 09:51:20;;;;;;;50.90;14.18;;;;;;;;;;4980368;28;20481;-89
2022/03/26 09:53:47;;;;;;;49.38;12.60;;;;;;;;;;4971213;28;20175;-89
2022/03/26 09:56:13;;;;;;;52.42;13.60;;;;;;;;;;4958675;28;20055;-87
2022/03/26 09:58:39;;;;;;;41.58;12.15;;;;;;;;;;4955976;28;20078;-88
2022/03/26 10:01:11;;;;;;;39.25;11.98;;;;;;;;;;4953536;28;20035;-89
2022/03/26 10:03:41;;;;;;;38.78;11.32;;;;;;;;;;4955354;28;20046;-90
2022/03/26 10:06:14;;;;;;;45.35;11.80;;;;;;;;;;4961326;28;20046;-89
2022/03/26 10:08:41;;;;;;;39.63;11.90;;;;;;;;;;4952773;28;20089;-90
2022/03/26 10:11:11;;;;;;;45.35;10.77;;;;;;;;;;4952175;28;20036;-91
2022/03/26 10:13:39;;;;;;;38.92;10.90;;;;;;;;;;4952445;28;20043;-89
2022/03/26 10:16:08;;;;;;;50.80;11.07;;;;;;;;;;4953493;28;20035;-88
2022/03/26 10:18:38;;;;;;;43.22;10.15;;;;;;;;;;4956079;28;20035;-88
2022/03/26 10:21:19;;;;;;;42.95;10.20;;;;;;;;;;4936157;28;20053;-87
2022/03/26 10:23:52;;;;;;;45.60;9.68;;;;;;;;;;4948193;28;20038;-86
2022/03/26 10:26:37;;;;;;;46.78;11.50;;;;;;;;;;4950313;28;20394;-87
2022/03/26 10:29:04;;;;;;;48.15;10.65;;;;;;;;;;4953880;28;20122;-88
2022/03/26 10:34:20;;;;;;;44.58;10.95;;;;;;;;;;4963068;28;20508;-87
2022/03/26 10:36:48;;;;;;;71.72;20.08;;;;;;;;;;4935098;28;20496;-88
2022/03/26 10:39:20;;;;;;;82.95;24.27;;;;;;;;;;4952888;28;20347;-88
2022/03/26 10:41:54;;;;;;;81.82;26.15;;;;;;;;;;4952695;28;20058;-87
2022/03/26 10:44:23;;;;;;;77.07;21.83;;;;;;;;;;4938279;29;20039;-88
2022/03/26 10:46:54;;;;;;;58.97;17.55;;;;;;;;;;4952831;28;20137;-88
2022/03/26 10:49:27;;;;;;;62.08;16.98;;;;;;;;;;4957658;28;20058;-88
2022/03/26 10:51:58;;;;;;;65.38;20.38;;;;;;;;;;4960216;28;20446;-88
2022/03/26 10:54:31;;;;;;;62.88;19.80;;;;;;;;;;4958337;28;20045;-88
2022/03/26 10:56:59;;;;;;;54.20;13.48;;;;;;;;;;4949885;28;20073;-88
2022/03/26 10:59:25;;;;;;;42.35;10.95;;;;;;;;;;4951611;28;20039;-89
2022/03/26 11:01:52;;;;;;;33.70;9.02;;;;;;;;;;4953439;28;20498;-88
2022/03/26 11:04:19;;;;;;;38.50;10.10;;;;;;;;;;4958769;28;20057;-87
2022/03/26 11:06:46;;;;;;;35.60;11.02;;;;;;;;;;4950679;28;20039;-88
2022/03/26 11:09:13;;;;;;;37.85;11.60;;;;;;;;;;4960235;28;20039;-87
2022/03/26 11:11:39;;;;;;;38.00;12.40;;;;;;;;;;4949975;28;20047;-87
2022/03/26 11:14:11;;;;;;;41.83;12.82;;;;;;;;;;4953033;28;20083;-88
2022/03/26 11:16:41;;;;;;;44.15;14.55;;;;;;;;;;4951349;28;20027;-87
2022/03/26 11:19:17;;;;;;;45.35;14.13;;;;;;;;;;4931163;29;20034;-88
2022/03/26 11:21:47;;;;;;;45.20;13.82;;;;;;;;;;4948274;28;20552;-88
2022/03/26 11:24:32;;;;;;;51.78;15.25;;;;;;;;;;4945859;28;20086;-86
2022/03/26 11:27:25;;;;;;;55.58;15.82;;;;;;;;;;4957063;28;20405;-88
2022/03/26 11:30:15;;;;;;;45.70;13.98;;;;;;;;;;4265604;28;10000574;-88
2022/03/26 11:32:44;;;;;;;36.30;13.52;;;;;;;;;;4932461;28;20074;-87
2022/03/26 11:35:16;;;;;;;40.17;12.05;;;;;;;;;;4941138;29;20043;-86
2022/03/26 11:37:53;;;;;;;54.40;13.93;;;;;;;;;;4960279;28;20497;-87
2022/03/26 11:40:38;;;;;;;42.60;13.13;;;;;;;;;;4953391;28;20038;-87
2022/03/26 11:43:05;;;;;;;56.13;12.75;;;;;;;;;;4958341;28;20034;-87
2022/03/26 11:51:23;;;;;;;47.80;12.75;;;;;;;;;;4963371;28;20130;-87
2022/03/26 11:53:56;;;;;;;38.38;9.27;;;;;;;;;;4945978;28;20117;-88
2022/03/26 11:56:33;;;;;;;51.50;10.48;;;;;;;;;;4977359;28;20050;-87
2022/03/26 11:59:09;;;;;;;45.38;9.80;;;;;;;;;;4965673;28;20133;-87
2022/03/26 12:01:37;;;;;;;39.03;9.95;;;;;;;;;;4970932;28;20051;-86
2022/03/26 12:04:14;;;;;;;39.10;9.10;;;;;;;;;;4973299;28;20039;-87
2022/03/26 12:07:00;;;;;;;43.03;11.40;;;;;;;;;;4955473;28;20172;-87
2022/03/26 12:09:31;;;;;;;42.92;11.23;;;;;;;;;;4988443;28;20181;-87
2022/03/26 12:12:10;;;;;;;43.10;10.60;;;;;;;;;;4979563;28;20031;-87
2022/03/26 12:14:58;;;;;;;37.80;10.55;;;;;;;;;;4988727;28;20035;-87
2022/03/26 12:17:44;;;;;;;38.72;9.95;;;;;;;;;;4956057;28;20122;-87
2022/03/26 12:20:25;;;;;;;43.92;10.57;;;;;;;;;;4978787;28;20034;-87
2022/03/26 12:23:12;;;;;;;44.40;12.95;;;;;;;;;;4975167;28;20121;-88
2022/03/26 12:25:47;;;;;;;48.60;15.02;;;;;;;;;;4972254;28;20047;-87
2022/03/26 12:28:14;;;;;;;47.50;18.00;;;;;;;;;;4982138;28;20031;-88
2022/03/26 12:30:55;;;;;;;58.53;20.27;;;;;;;;;;4972618;28;20484;-88
2022/03/26 12:33:23;;;;;;;56.90;18.67;;;;;;;;;;4990670;28;20199;-88
2022/03/26 12:35:50;;;;;;;54.90;19.13;;;;;;;;;;4978837;28;20043;-87
2022/03/26 12:38:20;;;;;;;66.90;19.55;;;;;;;;;;4960700;28;20039;-87
2022/03/26 12:40:50;;;;;;;58.28;18.60;;;;;;;;;;4975294;28;20146;-88
2022/03/26 12:43:18;;;;;;;55.03;17.23;;;;;;;;;;4973461;28;20043;-90
2022/03/26 12:45:44;;;;;;;62.63;18.02;;;;;;;;;;4982112;28;20362;-88
2022/03/26 12:48:26;;;;;;;54.63;15.98;;;;;;;;;;4974500;28;20484;-89
2022/03/26 12:50:53;;;;;;;50.58;15.57;;;;;;;;;;4974605;28;20039;-87
2022/03/26 12:53:29;;;;;;;48.22;16.88;;;;;;;;;;4975343;28;20043;-88
2022/03/26 12:55:57;;;;;;;60.38;17.77;;;;;;;;;;4977192;28;20077;-85
2022/03/26 13:01:11;;;;;;;52.25;16.02;;;;;;;;;;4961161;28;20174;-86
2022/03/26 13:03:42;;;;;;;52.85;17.42;;;;;;;;;;4972800;28;20039;-87
2022/03/26 13:06:10;;;;;;;56.45;17.85;;;;;;;;;;4961482;28;20038;-87
2022/03/26 13:08:38;;;;;;;53.15;16.77;;;;;;;;;;4976393;28;20030;-88
2022/03/26 13:11:08;;;;;;;52.97;17.85;;;;;;;;;;4974173;28;20054;-86
2022/03/26 13:13:51;;;;;;;57.33;18.27;;;;;;;;;;4975016;28;20047;-88
2022/03/26 13:16:21;;;;;;;42.22;15.82;;;;;;;;;;4974229;28;20038;-89
2022/03/26 13:19:06;;;;;;;58.65;18.67;;;;;;;;;;4971621;28;20399;-88
2022/03/26 13:21:33;;;;;;;51.70;19.30;;;;;;;;;;4976590;28;20077;-88
2022/03/26 13:24:18;;;;;;;59.67;20.55;;;;;;;;;;4974541;28;20042;-89
2022/03/26 13:27:00;;;;;;;67.68;21.23;;;;;;;;;;4962263;28;20192;-89
2022/03/26 13:29:46;;;;;;;49.38;17.65;;;;;;;;;;4974788;28;20034;-89
2022/03/26 13:32:12;;;;;;;56.63;19.13;;;;;;;;;;4977124;28;20058;-88
2022/03/26 13:34:40;;;;;;;50.95;18.70;;;;;;;;;;4974244;28;20061;-88
2022/03/26 13:37:13;;;;;;;58.83;18.15;;;;;;;;;;4955662;28;20086;-88
2022/03/26 13:39:44;;;;;;;57.67;17.73;;;;;;;;;;4971843;28;20043;-89
2022/03/26 13:42:14;;;;;;;54.85;18.00;;;;;;;;;;4955526;28;20053;-89
2022/03/26 13:44:42;;;;;;;49.63;17.25;;;;;;;;;;4973156;28;20122;-89
2022/03/26 13:47:08;;;;;;;52.95;19.08;;;;;;;;;;4972751;28;20138;-90
2022/03/26 13:49:54;;;;;;;55.67;18.92;;;;;;;;;;4974231;28;20065;-89
2022/03/26 13:52:25;;;;;;;56.88;21.50;;;;;;;;;;4974836;28;20512;-90
2022/03/26 13:54:51;;;;;;;60.72;21.70;;;;;;;;;;4976160;28;20102;-91
2022/03/26 13:57:40;;;;;;;55.05;20.85;;;;;;;;;;4954732;28;20091;-89
2022/03/26 14:00:10;;;;;;;63.42;24.92;;;;;;;;;;4964297;28;20039;-90
2022/03/26 14:02:38;;;;;;;67.25;24.13;;;;;;;;;;4969069;28;20038;-91
2022/03/26 14:05:05;;;;;;;61.55;24.02;;;;;;;;;;4953834;28;20067;-89
2022/03/26 14:07:35;;;;;;;55.25;21.63;;;;;;;;;;4970290;28;20065;-88
2022/03/26 14:10:05;;;;;;;57.10;22.70;;;;;;;;;;4951256;28;20049;-88
2022/03/26 14:12:32;;;;;;;53.17;22.33;;;;;;;;;;4954027;28;20687;-89
2022/03/26 14:15:01;;;;;;;60.88;24.08;;;;;;;;;;4951629;28;20069;-88
2022/03/26 14:17:28;;;;;;;60.67;23.77;;;;;;;;;;4950120;28;20042;-89
2022/03/26 14:19:54;;;;;;;72.43;24.92;;;;;;;;;;4954925;28;20043;-88
2022/03/26 14:22:30;;;;;;;70.65;25.10;;;;;;;;;;4954616;29;20050;-89
2022/03/26 14:25:15;;;;;;;70.28;27.65;;;;;;;;;;4958620;28;20041;-88
2022/03/26 14:27:47;;;;;;;69.07;28.23;;;;;;;;;;4944670;29;20039;-89
2022/03/26 14:30:14;;;;;;;94.47;34.33;;;;;;;;;;4950596;28;20063;-88
2022/03/26 14:32:40;;;;;;;93.43;32.42;;;;;;;;;;4974425;28;20383;-90
2022/03/26 14:35:07;;;;;;;99.22;34.70;;;;;;;;;;4967124;28;20549;-89
2022/03/26 14:37:34;;;;;;;86.57;32.00;;;;;;;;;;4981671;28;20031;-88
2022/03/26 14:40:07;;;;;;;76.82;30.95;;;;;;;;;;4971164;28;20557;-89
2022/03/26 14:42:34;;;;;;;86.68;30.08;;;;;;;;;;4953139;29;20043;-90
2022/03/26 14:45:04;;;;;;;77.68;28.15;;;;;;;;;;4946812;28;20122;-88
2022/03/26 14:47:31;;;;;;;69.40;27.13;;;;;;;;;;4950544;28;20031;-88
2022/03/26 14:49:58;;;;;;;58.80;24.17;;;;;;;;;;4953538;28;20498;-88
2022/03/26 14:52:24;;;;;;;73.40;28.23;;;;;;;;;;4961121;28;20035;-89